Logo AVAMET
Benvolgut visitant, si us plau, ingressa Recuperar contrasenya
AVAMET paisatges

Inforatge Gilet

Dades diàries. Acumulats / Últims 30 dies disponibles

Data Temperatura (°C) Humitat rel. (%) Pressió rel. (hPa) Vent (km/h) Precipitació
Mínima Mitjana Màxima Amplitud
tèrmica
Mínima Mitjana Màxima Mínima Mitjana Màxima Predom. Mitjana Ràfega
màxima
Total
(mm)
Índex-n
Mínima Mitjana Màxima Mínima Mitjana Màxima n
0 a 1
P0 max
mm 5'
Dades mensuals acumulades fins l'últim dia disponible
04/2020 11,1 11,4 11,6 13,2 15,4 16,9 18,4 7,3 63 81 91 1.015 1.017 1.021   3,3 25,7 8,0
Dades anuals acumulades fins l'últim dia disponible
2020 1,0 7,8 15,7 12,4 9,9 17,7 27,2 26,2 0 72 94 1.001 1.028 1.041   4,5 85,3 190,0
Últims 30 dies disponibles
02-04-2020 11,1     12,2     15,4 4,3 68 82 89 1.017 1.018 1.021 S 3,3 25,7 0,8
01-04-2020 11,6     14,2     18,4 6,8 63 79 91 1.015 1.017 1.019 E 3,2 22,5 7,2 0,24 0,40
31-03-2020 6,8     10,2     14,4 7,6 76 86 92 1.015 1.017 1.020 OSO 3,9 27,4 23,8 0,34 1,10
30-03-2020 7,6     11,6     14,2 6,6 60 75 89 1.019 1.020 1.020 NW 2,9 24,1 2,6
29-03-2020 6,4     14,4     22,3 15,9 W 4,3 24,1 0,0
28-03-2020 4,1     10,4     16,3 12,2 WNW 4,7 27,4 0,0
27-03-2020 5,5     8,2     11,9 6,4 76 84 89 1.018 1.019 1.021 NW 2,1 20,9 5,8
26-03-2020 5,6     9,8     15,8 10,2 41 71 90 1.013 1.016 1.020 NW 5,0 32,2 0,4
25-03-2020 7,2     9,2     10,8 3,6 72 82 89 1.020 1.023 1.024 NW 1,9 22,5 3,0 0,20
24-03-2020 10,8     12,8     13,9 3,1 71 80 87 1.023 1.024 1.025 NE 13,0 49,9 0,2
23-03-2020 11,4     13,0     15,8 4,4 76 88 93 1.021 1.022 1.024 NW 5,3 38,6 22,0 0,52 1,70
22-03-2020 10,4     12,6     15,6 5,2 71 84 92 1.017 1.019 1.021 NW 4,2 27,4 6,4 0,78 1,20
21-03-2020 9,0     11,9     14,2 5,2 70 82 90 1.018 1.020 1.024 NW 3,2 20,9 0,0
20-03-2020 11,3     13,0     14,8 3,5 71 81 89 1.023 1.025 1.027 ENE 5,6 27,4 0,0
19-03-2020 8,4     12,1     16,1 7,7 71 84 91 1.027 1.029 1.032 ENE 4,7 24,1 0,0
18-03-2020 10,2     12,9     15,8 5,6 69 82 90 1.031 1.033 1.035 NW 5,8 29,0 0,0
17-03-2020 11,6     13,0     14,4 2,8 83 90 94 1.025 1.030 1.035 NE 4,8 37,0 24,2 0,42 0,80
16-03-2020 10,2     12,8     13,9 3,7 80 88 92 1.017 1.020 1.025 E 3,7 30,6 12,2 0,39 0,60
15-03-2020 8,6     13,3     17,7 9,1 62 80 89 1.021 1.024 1.026 E 2,6 24,1 0,0
14-03-2020 9,4     13,6     18,3 8,9 57 76 86 1.025 1.026 1.027 E 2,9 22,5 0,0
13-03-2020 9,5     13,7     18,0 8,5 61 78 93 1.024 1.026 1.028 E 5,0 33,8 0,0
12-03-2020 9,7     14,8     20,2 10,5 0 74 87 1.023 1.025 1.028 E 2,9 19,3 0,0
11-03-2020 9,0     15,8     22,4 13,4 0 64 80 1.028 1.029 1.030 E 3,4 17,7 0,0
10-03-2020 11,3     15,1     19,0 7,7 40 58 72 1.028 1.030 1.032 W 2,6 25,7 0,0
09-03-2020 9,7     17,1     22,0 12,3 29 45 73 1.025 1.027 1.029 NW 7,1 37,0 0,0
08-03-2020 7,9     13,7     20,0 12,1 36 59 71 1.027 1.028 1.030 W 3,4 24,1 0,0
07-03-2020 8,9     13,4     18,9 10,0 37 48 70 1.026 1.028 1.030 W 6,9 46,7 0,0
06-03-2020 9,4     14,2     18,2 8,8 25 43 64 1.018 1.020 1.027 NW 10,5 64,4 0,0
05-03-2020 15,7     18,9     22,4 6,7 32 48 60 1.012 1.016 1.021 WSW 11,7 49,9 0,0
04-03-2020 9,9     18,9     25,4 15,5 39 53 73 1.020 1.021 1.023 WSW 7,2 40,2 0,0
Últims 13 mesos disponibles
03/2020 4,1 9,4 15,7 13,6 10,8 17,6 25,4 21,3 43 70 90 1.011 1.023 1.033 NW 5,9 85,3 100,6
02/2020 4,6 8,2 13,5 13,6 13,8 19,9 27,2 22,6 43 70 87 1.019 1.031 1.039 W 3,3 56,3 1,6
01/2020 1,0 5,7 14,0 10,1 9,9 15,9 22,4 21,4 56 74 88 1.023 1.031 1.038 W 4,4 69,2 79,8
12/2019 2,9 9,0 17,7 13,0 11,8 17,6 24,8 21,9 42 70 90 1.007 1.024 1.039 W 5,2 72,4 68,0
11/2019 4,8 11,0 21,2 15,5 15,5 19,7 28,7 23,9 42 54 75 1.003 1.016 1.023 WSW 7,2 66,0 2,2
10/2019 10,0 14,9 19,8 19,4 15,2 24,6 29,7 19,7 47 69 83 1.012 1.022 1.027 W 3,9 46,7 27,4
09/2019 14,4 18,9 22,3 22,8 20,7 27,2 32,2 17,8 45 72 82 1.016 1.024 1.031 SSO 4,5 48,3 117,2
08/2019 17,0 20,8 24,3 25,7 25,0 30,4 41,9 24,9 42 69 79 1.016 1.022 1.026 SSO 4,7 61,1 12,6
07/2019 19,4 20,9 23,4 26,1 27,3 31,0 36,6 17,2 47 63 78 1.011 1.020 1.027 S 4,9 45,0 12,2
06/2019 10,5 16,5 20,9 21,9 21,3 26,8 37,7 27,2 39 62 78 1.014 1.021 1.028 S 5,3 61,1 0,0
05/2019 8,3 13,3 17,9 17,9 18,4 22,6 32,7 24,4 45 66 84 1.011 1.021 1.030 S 4,7 51,9 22,0
04/2019 7,2 10,6 14,1 14,9 15,3 19,7 29,8 22,6 42 64 93 1.005 1.018 1.031 SSO 6,8 66,7 61,6
03/2019 4,6 8,0 12,6 13,7 12,1 19,6 28,2 23,6 40 59 86 1.016 1.028 1.035 SSO 4,6 56,3 33,4
Tots els anys disponibles
2019 1,2 13,0 24,3 17,8 9,1 22,8 41,9 40,7 34 64 93 998 1.022 1.039 SSO 5,2 72,4 356,6
Temperatura (°C)
Humitat relativa (%)
Velocitat del vent i ràfega màxima (km/h)
Direcció del vent (°)
Pressió (hPa)
Precipitació (mm)
Nota sobre les dades: s'avisa a l'usuari de la provisionalitat i no oficialitat d'aquestes dades
Logo AVAMET blanc
Web allotjada a Sollutia
Llicència de Creative CommonsLa web d'AVAMET i els seus continguts estan subjectes a una llicència de
Reconeixement - No Comercial - Compartir igual
Últimes estacions:  Altea - Com. Regants (Soci), Almoines (Inforatge), Beniparrell (Inforatge), Albal (Inforatge), Almussafes - Parc Industrial (Inforatge), La Vilavella (Soci), la Serratella (soci) - - -